KNGP

Airport

Corpus Christi, Texas, USA
METAR KNGP 200056Z 18004KT 4SM -DZ BR BKN004 OVC017 11/11 A3011 RMK AO2 SLP196 P0000 T01110106
Observed Flight Rules
Jan-20 @ 00:56 UTC (27 minutes ago) Instrument Flight Rules
Wind Visibility Clouds Conditions
180° at 4 knots 4 miles
  • Broken at 400' AGL
  • Overcast at 1,700' AGL
  • Light Drizzle
  • Mist
Temperatures Readings Precipitation
Current 11°C / 52°F
Dewpoint 11°C / 52°F
Humidity 100%
Altimeter 30.11" Hg
Pressure 1019.6 hPa
Elevation 6
Current Rain 0.005
METAR KNGP 200056Z 18004KT 4SM -DZ BR BKN004 OVC017 11/11 A3011 RMK AO2 SLP196 P0000 T01110106
Observed Flight Rules
Jan-20 @ 00:56 UTC
(27 minutes ago)
LIFR
Wind Visibility
180° at 4 knots 4 miles
Clouds
  • Broken at 400' AGL
  • Overcast at 1,700' AGL
Conditions
  • Light Drizzle
  • Mist
Temperature Dewpoint
11°C / 52°F 11°C / 52°F
Humidity Altimeter Pressure
100% 30.11" Hg 1019.6 hPa
Current Rain
0.005